Time;durP1;ratioP1;P1;durP2;ratioP2;P2;SDS_P1;SDS_P2;PMS_P1;PMS_P2;Temp;Humidity;BMP_temperature;BMP_pressure;BME280_temperature;BME280_humidity;BME280_pressure;Samples;Min_cycle;Max_cycle;Signal;HPM_P1;HPM_P2
2022/02/27 00:01:47;;;;;;;79.40;34.20;;;;;;;2.20;72.37;102204.59;105423;1278;23339;-56
2022/02/27 00:04:18;;;;;;;73.60;30.70;;;;;;;2.21;72.43;102203.02;105435;1277;22572;-58
2022/02/27 00:06:49;;;;;;;79.90;32.00;;;;;;;2.19;72.45;102205.89;105489;1277;22783;-58
2022/02/27 00:09:21;;;;;;;70.90;31.60;;;;;;;2.20;72.48;102207.19;105333;1278;26669;-56
2022/02/27 00:11:53;;;;;;;75.30;32.80;;;;;;;2.21;72.41;102212.79;105557;1277;26885;-56
2022/02/27 00:14:25;;;;;;;68.40;33.50;;;;;;;2.19;72.47;102216.15;105996;1277;22771;-56
2022/02/27 00:16:56;;;;;;;73.10;31.70;;;;;;;2.18;72.27;102218.80;106395;1271;22576;-58
2022/02/27 00:19:27;;;;;;;67.60;30.00;;;;;;;2.15;72.36;102222.30;106413;1271;22557;-58
2022/02/27 00:21:59;;;;;;;78.50;34.20;;;;;;;2.06;72.39;102225.34;105936;1271;22716;-53
2022/02/27 00:24:30;;;;;;;73.90;32.20;;;;;;;1.99;72.32;102220.04;105983;1271;24252;-55
2022/02/27 00:27:01;;;;;;;75.40;33.20;;;;;;;1.91;72.31;102213.41;105970;1271;22661;-53
2022/02/27 00:29:32;;;;;;;71.90;31.90;;;;;;;1.87;72.29;102211.77;106040;1271;22545;-56
2022/02/27 00:32:06;;;;;;;68.70;30.70;;;;;;;1.85;72.33;102212.30;106154;1271;22548;-54
2022/02/27 00:34:37;;;;;;;75.60;32.20;;;;;;;1.81;72.43;102213.89;106085;1271;26805;-57
2022/02/27 00:37:09;;;;;;;66.70;30.10;;;;;;;1.78;72.32;102214.24;106203;1271;22692;-55
2022/02/27 00:39:40;;;;;;;65.20;31.10;;;;;;;1.75;72.29;102216.72;106063;1271;25586;-53
2022/02/27 00:42:11;;;;;;;67.60;29.00;;;;;;;1.72;72.31;102217.61;106007;1271;25474;-57
2022/02/27 00:44:42;;;;;;;64.90;27.30;;;;;;;1.69;72.48;102222.21;105947;1271;25460;-56
2022/02/27 00:47:14;;;;;;;63.80;27.80;;;;;;;1.65;72.39;102217.35;105967;1271;22572;-56
2022/02/27 00:49:45;;;;;;;60.60;25.30;;;;;;;1.62;72.52;102220.21;106054;1271;22564;-56
2022/02/27 00:52:21;;;;;;;56.90;25.70;;;;;;;1.58;72.50;102218.59;106095;1271;22556;-56
2022/02/27 00:54:53;;;;;;;62.70;29.60;;;;;;;1.52;72.45;102210.79;105936;1272;25367;-56
2022/02/27 00:57:24;;;;;;;61.70;27.60;;;;;;;1.43;72.54;102217.09;105920;1271;22582;-57
2022/02/27 00:59:56;;;;;;;59.10;27.70;;;;;;;1.35;72.46;102214.77;106079;1271;22577;-58
2022/02/27 01:02:28;;;;;;;62.40;27.50;;;;;;;1.29;72.43;102216.02;106538;1271;22574;-56
2022/02/27 01:04:59;;;;;;;59.30;27.30;;;;;;;1.24;72.36;102215.60;106126;1270;22677;-57
2022/02/27 01:07:30;;;;;;;56.80;26.20;;;;;;;1.22;72.32;102221.00;106428;1269;22649;-54
2022/02/27 01:10:01;;;;;;;56.30;25.10;;;;;;;1.20;72.33;102220.98;105995;1271;24136;-56
2022/02/27 01:12:33;;;;;;;60.70;27.70;;;;;;;1.20;72.25;102223.47;106102;1271;24386;-54
2022/02/27 01:15:07;;;;;;;69.50;29.70;;;;;;;1.16;72.10;102221.69;105971;1271;22535;-57
2022/02/27 01:17:38;;;;;;;56.30;26.20;;;;;;;1.12;72.14;102221.52;106198;1271;22620;-56
2022/02/27 01:20:11;;;;;;;60.40;25.60;;;;;;;1.09;72.22;102216.84;106211;1271;22616;-56
2022/02/27 01:22:43;;;;;;;61.70;26.30;;;;;;;1.08;72.08;102220.45;106346;1271;22731;-57
2022/02/27 01:25:14;;;;;;;66.10;26.20;;;;;;;1.06;72.05;102220.23;105975;1268;22572;-56
2022/02/27 01:27:45;;;;;;;64.10;29.00;;;;;;;1.00;72.10;102218.88;106094;1271;22541;-55
2022/02/27 01:30:16;;;;;;;61.40;27.00;;;;;;;0.92;72.17;102220.23;106243;1268;25457;-53
2022/02/27 01:32:47;;;;;;;59.10;28.50;;;;;;;0.85;72.28;102217.51;105977;1271;22637;-55
2022/02/27 01:35:18;;;;;;;63.90;26.80;;;;;;;0.79;72.31;102216.87;105987;1271;22599;-56
2022/02/27 01:37:49;;;;;;;61.00;27.50;;;;;;;0.75;72.29;102215.52;106011;1271;25583;-55
2022/02/27 01:40:21;;;;;;;59.90;26.70;;;;;;;0.70;72.23;102217.08;106201;1271;22561;-56
2022/02/27 01:42:52;;;;;;;61.80;25.50;;;;;;;0.68;72.30;102218.21;106099;1271;24099;-52
2022/02/27 01:45:23;;;;;;;65.70;28.60;;;;;;;0.65;72.33;102220.59;106225;1270;22553;-56
2022/02/27 01:47:55;;;;;;;59.30;27.00;;;;;;;0.62;72.19;102219.11;105905;1271;26503;-55
2022/02/27 01:50:26;;;;;;;62.80;28.00;;;;;;;0.59;72.21;102221.59;106086;1271;25241;-59
2022/02/27 01:52:57;;;;;;;71.50;30.20;;;;;;;0.55;72.14;102218.44;106079;1271;22553;-56
2022/02/27 01:55:28;;;;;;;63.60;28.00;;;;;;;0.51;72.24;102212.95;105938;1271;22572;-56
2022/02/27 01:58:00;;;;;;;66.80;27.70;;;;;;;0.47;72.22;102213.65;106172;1271;22584;-57
2022/02/27 02:00:38;;;;;;;60.00;28.90;;;;;;;0.42;72.27;102211.52;106010;1271;22538;-56
2022/02/27 02:03:10;;;;;;;61.70;28.50;;;;;;;0.38;72.19;102208.67;106190;1268;22647;-54
2022/02/27 02:05:41;;;;;;;71.70;31.30;;;;;;;0.34;72.26;102213.45;106392;1268;22559;-55
2022/02/27 02:08:12;;;;;;;66.50;29.60;;;;;;;0.29;72.25;102211.33;106146;1268;22564;-56
2022/02/27 02:10:43;;;;;;;59.80;26.40;;;;;;;0.25;72.27;102210.45;106214;1268;22547;-58
2022/02/27 02:13:14;;;;;;;63.80;27.30;;;;;;;0.21;72.42;102209.89;106238;1268;25935;-56
2022/02/27 02:15:45;;;;;;;61.70;25.90;;;;;;;0.17;72.51;102209.71;106243;1268;23836;-51
2022/02/27 02:18:16;;;;;;;59.40;26.80;;;;;;;0.15;72.48;102209.21;106226;1268;22569;-56
2022/02/27 02:20:48;;;;;;;67.80;28.30;;;;;;;0.12;72.22;102210.64;106152;1268;24161;-56
2022/02/27 02:23:19;;;;;;;65.30;29.00;;;;;;;0.08;72.34;102211.83;106542;1267;24216;-59
2022/02/27 02:25:51;;;;;;;61.30;27.30;;;;;;;0.06;72.41;102211.06;106252;1268;24472;-56
2022/02/27 02:28:22;;;;;;;58.30;26.40;;;;;;;0.02;72.37;102212.18;106200;1267;23135;-57
2022/02/27 02:30:53;;;;;;;57.90;25.30;;;;;;;-0.03;72.44;102210.10;106181;1265;24386;-55
2022/02/27 02:33:36;;;;;;;58.30;26.40;;;;;;;-0.07;72.55;102206.17;106100;1268;22553;-56
2022/02/27 02:36:08;;;;;;;60.60;25.90;;;;;;;-0.11;72.46;102211.11;106151;1268;22529;-54
2022/02/27 02:38:40;;;;;;;58.70;25.40;;;;;;;-0.13;72.48;102209.64;106281;1268;22867;-57
2022/02/27 02:41:13;;;;;;;59.40;27.70;;;;;;;-0.16;72.34;102209.57;106283;1268;22751;-57
2022/02/27 02:43:46;;;;;;;61.00;26.30;;;;;;;-0.23;72.44;102207.70;106389;1268;26919;-56
2022/02/27 02:46:17;;;;;;;61.20;25.60;;;;;;;-0.27;72.49;102209.48;106501;1268;22569;-56
2022/02/27 02:48:49;;;;;;;57.20;25.40;;;;;;;-0.34;72.59;102208.06;106031;1266;24061;-57
2022/02/27 02:51:20;;;;;;;54.20;25.90;;;;;;;-0.39;72.77;102205.84;105986;1268;25764;-56
2022/02/27 02:53:51;;;;;;;56.50;25.70;;;;;;;-0.43;73.04;102201.91;105958;1268;22686;-56
2022/02/27 02:56:22;;;;;;;65.60;27.00;;;;;;;-0.46;72.92;102198.54;106177;1268;25606;-55
2022/02/27 02:58:54;;;;;;;61.50;25.70;;;;;;;-0.48;72.91;102198.56;106327;1268;25719;-54
2022/02/27 03:01:25;;;;;;;64.90;27.90;;;;;;;-0.55;72.99;102199.12;106039;1268;23374;-56
2022/02/27 03:03:56;;;;;;;59.90;27.50;;;;;;;-0.58;73.44;102200.76;105922;1268;22557;-59
2022/02/27 03:06:28;;;;;;;60.10;27.10;;;;;;;-0.62;73.25;102200.74;106227;1268;22641;-54
2022/02/27 03:09:00;;;;;;;55.20;25.40;;;;;;;-0.68;73.69;102200.91;106163;1268;22530;-56
2022/02/27 03:11:31;;;;;;;62.20;26.50;;;;;;;-0.72;73.46;102197.13;106310;1268;23049;-56
2022/02/27 03:14:02;;;;;;;61.80;27.10;;;;;;;-0.77;73.33;102193.09;106547;1259;24457;-55
2022/02/27 03:16:34;;;;;;;72.90;30.30;;;;;;;-0.80;73.92;102197.42;106012;1271;22743;-54
2022/02/27 03:19:05;;;;;;;64.60;27.50;;;;;;;-0.84;74.13;102195.67;105823;1271;22616;-57
2022/02/27 03:21:38;;;;;;;64.90;28.30;;;;;;;-0.88;73.98;102203.10;105890;1271;22599;-57
2022/02/27 03:24:09;;;;;;;64.30;28.40;;;;;;;-0.92;74.14;102207.14;105973;1271;25579;-56
2022/02/27 03:26:41;;;;;;;69.40;30.10;;;;;;;-0.95;74.14;102202.52;106230;1270;22560;-57
2022/02/27 03:29:12;;;;;;;62.20;28.60;;;;;;;-0.97;74.10;102207.02;106000;1270;24291;-57
2022/02/27 03:31:43;;;;;;;67.00;28.20;;;;;;;-1.00;74.11;102210.15;105614;1271;22559;-58
2022/02/27 03:34:15;;;;;;;63.00;30.20;;;;;;;-1.04;73.99;102203.86;106120;1271;22564;-58
2022/02/27 03:36:46;;;;;;;66.60;30.30;;;;;;;-1.07;73.97;102203.80;105857;1270;22644;-57
2022/02/27 03:39:17;;;;;;;65.40;29.20;;;;;;;-1.09;74.03;102202.48;105873;1271;24274;-57
2022/02/27 03:41:48;;;;;;;65.00;29.70;;;;;;;-1.10;74.02;102201.20;105861;1271;24269;-57
2022/02/27 03:44:19;;;;;;;65.10;27.90;;;;;;;-1.14;73.93;102203.07;105952;1271;23058;-56
2022/02/27 03:46:50;;;;;;;68.70;31.00;;;;;;;-1.13;74.04;102206.27;105840;1271;22690;-57
2022/02/27 03:49:21;;;;;;;64.70;28.10;;;;;;;-1.14;74.06;102210.91;105856;1271;22706;-56
2022/02/27 03:51:52;;;;;;;59.70;29.20;;;;;;;-1.16;74.11;102211.07;105988;1271;22573;-57
2022/02/27 03:54:23;;;;;;;73.00;28.40;;;;;;;-1.18;74.25;102211.86;105779;1271;25516;-58
2022/02/27 03:56:54;;;;;;;71.80;30.50;;;;;;;-1.20;74.25;102217.54;106082;1271;22532;-56
2022/02/27 03:59:26;;;;;;;68.90;30.20;;;;;;;-1.22;74.17;102214.28;105865;1271;24259;-58
2022/02/27 04:01:57;;;;;;;65.00;29.80;;;;;;;-1.24;74.06;102216.89;106236;1271;24365;-56
2022/02/27 04:04:29;;;;;;;69.00;31.50;;;;;;;-1.27;74.12;102216.64;106011;1271;22624;-55
2022/02/27 04:06:59;;;;;;;71.00;31.90;;;;;;;-1.31;74.33;102213.71;105983;1271;22598;-57
2022/02/27 04:09:30;;;;;;;75.80;32.60;;;;;;;-1.35;74.45;102223.32;105919;1271;25619;-56
2022/02/27 04:12:02;;;;;;;72.40;33.30;;;;;;;-1.39;74.62;102220.09;105820;1271;22929;-57
2022/02/27 04:14:33;;;;;;;65.80;30.30;;;;;;;-1.39;74.66;102222.42;105940;1271;23287;-56
2022/02/27 04:17:05;;;;;;;66.80;30.40;;;;;;;-1.40;74.51;102223.97;105906;1271;22635;-57
2022/02/27 04:19:36;;;;;;;73.60;30.50;;;;;;;-1.40;74.36;102224.67;105775;1271;22782;-58
2022/02/27 04:22:07;;;;;;;72.60;33.30;;;;;;;-1.39;74.34;102230.48;105761;1271;24335;-58
2022/02/27 04:24:38;;;;;;;80.50;34.20;;;;;;;-1.40;74.73;102231.88;105967;1271;22579;-57
2022/02/27 04:27:09;;;;;;;79.90;36.50;;;;;;;-1.42;75.36;102232.98;105904;1270;22655;-57
2022/02/27 04:29:41;;;;;;;73.40;35.40;;;;;;;-1.43;75.26;102228.42;105753;1270;22632;-56
2022/02/27 04:32:12;;;;;;;77.70;34.80;;;;;;;-1.42;74.83;102227.17;105899;1271;22681;-57
2022/02/27 04:34:44;;;;;;;75.30;31.60;;;;;;;-1.41;74.53;102224.71;105840;1270;22883;-57
2022/02/27 04:37:15;;;;;;;78.20;36.90;;;;;;;-1.40;74.41;102228.20;106112;1271;22703;-57
2022/02/27 04:39:45;;;;;;;75.20;36.40;;;;;;;-1.38;74.47;102232.61;105979;1271;24259;-54
2022/02/27 04:42:17;;;;;;;72.00;35.00;;;;;;;-1.39;74.39;102237.98;105880;1271;22687;-55
2022/02/27 04:44:49;;;;;;;79.10;35.30;;;;;;;-1.41;74.61;102243.27;105908;1270;22705;-55
2022/02/27 04:47:20;;;;;;;71.50;34.50;;;;;;;-1.41;74.75;102245.14;105842;1270;22618;-57
2022/02/27 04:49:52;;;;;;;77.30;34.10;;;;;;;-1.41;74.90;102252.50;105708;1271;22728;-53
2022/02/27 04:52:24;;;;;;;75.70;36.10;;;;;;;-1.43;75.55;102250.08;105597;1271;23701;-57
2022/02/27 04:54:55;;;;;;;80.20;35.10;;;;;;;-1.48;75.77;102250.51;105564;1270;25560;-56
2022/02/27 04:57:26;;;;;;;88.40;41.50;;;;;;;-1.52;75.62;102247.19;105726;1271;25528;-57
2022/02/27 04:59:57;;;;;;;79.80;36.00;;;;;;;-1.53;75.56;102247.85;105973;1270;22697;-57
2022/02/27 05:02:28;;;;;;;78.10;38.60;;;;;;;-1.55;75.14;102248.98;105831;1271;25697;-57
2022/02/27 05:04:59;;;;;;;95.50;40.70;;;;;;;-1.55;75.13;102253.04;105680;1270;22751;-57
2022/02/27 05:07:31;;;;;;;89.70;38.80;;;;;;;-1.53;75.22;102251.07;105715;1271;24264;-57
2022/02/27 05:10:04;;;;;;;88.90;39.40;;;;;;;-1.52;76.11;102257.44;105876;1270;24674;-58
2022/02/27 05:12:34;;;;;;;88.10;37.60;;;;;;;-1.49;76.34;102258.00;105907;1270;24289;-55
2022/02/27 05:15:08;;;;;;;88.40;39.20;;;;;;;-1.46;76.55;102266.60;105588;1270;25658;-58
2022/02/27 05:17:40;;;;;;;77.20;36.90;;;;;;;-1.45;76.55;102268.68;106184;1271;26861;-56
2022/02/27 05:20:14;;;;;;;85.40;36.20;;;;;;;-1.43;76.75;102269.36;106038;1270;22704;-55
2022/02/27 05:22:48;;;;;;;80.00;36.60;;;;;;;-1.42;76.96;102273.77;106008;1270;22765;-57
2022/02/27 05:25:21;;;;;;;81.50;34.50;;;;;;;-1.39;77.02;102277.46;105915;1270;22655;-57
2022/02/27 05:27:54;;;;;;;74.20;30.50;;;;;;;-1.36;77.41;102281.14;105722;1270;24268;-56
2022/02/27 05:30:26;;;;;;;80.80;35.80;;;;;;;-1.32;77.30;102282.27;105688;1270;22579;-56
2022/02/27 05:32:57;;;;;;;74.70;33.50;;;;;;;-1.30;76.82;102288.03;105894;1270;22623;-56
2022/02/27 05:35:29;;;;;;;76.20;33.90;;;;;;;-1.29;76.88;102295.75;105681;1271;24263;-57
2022/02/27 05:38:00;;;;;;;74.50;33.10;;;;;;;-1.27;76.96;102294.79;105584;1270;22699;-58
2022/02/27 05:40:31;;;;;;;76.00;34.30;;;;;;;-1.26;77.00;102299.11;105658;1270;24421;-57
2022/02/27 05:43:02;;;;;;;79.00;34.00;;;;;;;-1.24;77.12;102300.96;105654;1271;25633;-57
2022/02/27 05:45:33;;;;;;;77.70;35.60;;;;;;;-1.23;77.36;102301.07;105766;1271;22700;-57
2022/02/27 05:48:05;;;;;;;79.10;32.30;;;;;;;-1.22;77.11;102302.05;105814;1270;25593;-57
2022/02/27 05:50:36;;;;;;;76.00;34.60;;;;;;;-1.21;77.47;102299.32;105958;1267;24390;-58
2022/02/27 05:53:07;;;;;;;81.20;34.40;;;;;;;-1.21;77.42;102300.35;105796;1268;22714;-57
2022/02/27 05:55:38;;;;;;;74.60;31.50;;;;;;;-1.20;77.85;102306.41;105820;1268;22732;-57
2022/02/27 05:58:10;;;;;;;80.20;34.90;;;;;;;-1.20;77.91;102306.64;106034;1267;22567;-54
2022/02/27 06:00:41;;;;;;;85.40;36.60;;;;;;;-1.18;77.99;102308.89;105822;1268;23331;-58
2022/02/27 06:03:12;;;;;;;83.30;36.80;;;;;;;-1.18;78.11;102312.87;105775;1268;23202;-55
2022/02/27 06:05:43;;;;;;;74.80;35.80;;;;;;;-1.18;78.19;102313.35;105752;1270;25602;-56
2022/02/27 06:08:14;;;;;;;82.50;38.20;;;;;;;-1.16;78.27;102321.02;105780;1268;25579;-57
2022/02/27 06:10:46;;;;;;;83.20;37.80;;;;;;;-1.11;78.40;102323.58;105992;1270;23147;-57
2022/02/27 06:13:17;;;;;;;77.80;35.70;;;;;;;-1.08;78.54;102324.67;105873;1268;26769;-57
2022/02/27 06:15:49;;;;;;;76.40;35.40;;;;;;;-1.04;78.86;102323.16;105890;1268;25940;-56
2022/02/27 06:18:20;;;;;;;86.50;40.10;;;;;;;-1.01;78.80;102326.21;105779;1270;24418;-57
2022/02/27 06:20:51;;;;;;;89.00;40.60;;;;;;;-0.98;78.91;102325.81;105785;1270;22736;-57
2022/02/27 06:23:22;;;;;;;78.30;36.30;;;;;;;-0.95;78.99;102332.08;105903;1267;25979;-57
2022/02/27 06:25:54;;;;;;;90.50;39.70;;;;;;;-0.92;79.19;102337.34;105861;1271;22816;-55
2022/02/27 06:28:25;;;;;;;79.40;39.20;;;;;;;-0.89;79.37;102341.96;106569;1268;25586;-58
2022/02/27 06:30:56;;;;;;;109.40;47.60;;;;;;;-0.86;79.64;102345.83;105882;1268;22780;-57
2022/02/27 06:33:29;;;;;;;98.30;46.00;;;;;;;-0.81;79.87;102348.98;105839;1271;23195;-59
2022/02/27 06:35:59;;;;;;;93.70;40.20;;;;;;;-0.77;79.98;102346.83;106025;1270;22621;-55
2022/02/27 06:38:31;;;;;;;93.00;41.50;;;;;;;-0.74;80.62;102348.77;105719;1270;22921;-56
2022/02/27 06:41:03;;;;;;;113.40;48.90;;;;;;;-0.72;80.76;102348.06;105841;1268;22663;-58
2022/02/27 06:43:34;;;;;;;109.90;48.60;;;;;;;-0.69;80.97;102349.00;106064;1271;25592;-57
2022/02/27 06:46:05;;;;;;;121.60;50.30;;;;;;;-0.65;81.02;102350.90;105898;1270;23329;-64
2022/02/27 06:48:37;;;;;;;116.00;47.50;;;;;;;-0.62;81.11;102352.09;105988;1268;25577;-57
2022/02/27 06:51:09;;;;;;;101.10;44.80;;;;;;;-0.57;81.03;102353.70;105823;1270;22740;-56
2022/02/27 06:53:40;;;;;;;112.70;44.60;;;;;;;-0.50;81.20;102359.77;105813;1270;23176;-58
2022/02/27 06:56:11;;;;;;;101.20;45.30;;;;;;;-0.44;81.24;102366.20;105883;1268;24414;-58
2022/02/27 06:58:42;;;;;;;100.00;43.70;;;;;;;-0.39;81.55;102365.16;106087;1270;22800;-55
2022/02/27 07:01:13;;;;;;;102.50;45.60;;;;;;;-0.34;81.53;102373.83;105956;1271;22686;-57
2022/02/27 07:03:44;;;;;;;96.60;39.30;;;;;;;-0.32;81.53;102372.54;106030;1270;24297;-57
2022/02/27 07:06:15;;;;;;;96.80;42.80;;;;;;;-0.28;81.75;102377.66;106026;1270;22592;-58
2022/02/27 07:08:46;;;;;;;111.80;47.20;;;;;;;-0.24;81.68;102377.69;106175;1270;22634;-58
2022/02/27 07:11:18;;;;;;;102.30;43.20;;;;;;;-0.19;81.81;102380.31;105915;1270;22580;-58
2022/02/27 07:13:49;;;;;;;97.60;42.30;;;;;;;-0.16;81.92;102377.73;106116;1270;25648;-63
2022/02/27 07:16:23;;;;;;;116.60;48.80;;;;;;;-0.12;81.71;102382.86;106065;1271;25745;-60
2022/02/27 07:18:57;;;;;;;104.90;43.50;;;;;;;-0.07;81.79;102387.45;106235;1270;23337;-60
2022/02/27 07:21:28;;;;;;;98.90;42.80;;;;;;;-0.03;81.92;102393.21;106106;1267;25522;-60
2022/02/27 07:24:00;;;;;;;112.20;46.90;;;;;;;0.02;81.99;102389.48;106052;1270;23188;-61
2022/02/27 07:26:32;;;;;;;122.30;49.10;;;;;;;0.08;82.11;102391.26;106056;1271;25652;-59
2022/02/27 07:29:03;;;;;;;95.90;41.20;;;;;;;0.11;82.07;102387.41;106200;1268;22757;-59
2022/02/27 07:31:34;;;;;;;63.00;24.10;;;;;;;0.14;82.28;102390.37;105990;1270;22560;-59
2022/02/27 07:34:06;;;;;;;101.70;42.00;;;;;;;0.14;82.70;102385.20;106283;1270;24320;-60
2022/02/27 07:36:37;;;;;;;109.10;45.20;;;;;;;0.15;82.46;102390.18;105977;1269;26412;-58
2022/02/27 07:39:08;;;;;;;100.90;42.40;;;;;;;0.17;82.72;102390.46;106081;1268;24224;-58
2022/02/27 07:41:40;;;;;;;96.40;37.10;;;;;;;0.20;82.67;102396.34;106223;1268;25617;-56
2022/02/27 07:44:11;;;;;;;111.10;44.20;;;;;;;0.23;82.82;102399.23;105932;1270;24483;-58
2022/02/27 07:46:43;;;;;;;125.10;48.90;;;;;;;0.26;82.68;102401.28;105957;1270;24365;-57
2022/02/27 07:49:15;;;;;;;96.60;37.50;;;;;;;0.31;82.88;102403.11;106077;1271;24266;-56
2022/02/27 07:51:46;;;;;;;115.70;46.10;;;;;;;0.33;82.87;102398.14;106109;1271;22730;-58
2022/02/27 07:54:18;;;;;;;106.70;41.00;;;;;;;0.38;82.83;102400.76;105942;1268;22529;-59
2022/02/27 07:56:53;;;;;;;95.10;39.10;;;;;;;0.41;82.86;102404.07;105890;1268;22889;-61
2022/02/27 07:59:24;;;;;;;89.80;37.30;;;;;;;0.45;83.11;102403.84;106020;1270;23809;-57
2022/02/27 08:01:56;;;;;;;89.60;36.90;;;;;;;0.45;83.06;102404.07;106032;1270;24440;-55
2022/02/27 08:04:28;;;;;;;97.70;40.10;;;;;;;0.47;83.12;102406.71;105911;1268;24154;-58
2022/02/27 08:07:01;;;;;;;91.90;38.40;;;;;;;0.50;83.11;102403.25;106112;1268;22634;-57
2022/02/27 08:09:34;;;;;;;104.10;42.30;;;;;;;0.55;83.07;102398.95;106123;1269;27053;-58
2022/02/27 08:12:06;;;;;;;112.30;43.00;;;;;;;0.61;83.08;102400.58;106074;1270;23738;-57
2022/02/27 08:14:37;;;;;;;101.30;43.10;;;;;;;0.66;83.26;102402.35;105924;1270;25475;-56
2022/02/27 08:17:09;;;;;;;99.00;42.70;;;;;;;0.70;83.02;102399.37;105928;1270;22548;-59
2022/02/27 08:19:40;;;;;;;106.10;44.50;;;;;;;0.75;83.05;102403.09;105973;1270;26665;-58
2022/02/27 08:22:11;;;;;;;94.60;40.50;;;;;;;0.81;83.11;102406.05;106102;1269;22623;-57
2022/02/27 08:24:44;;;;;;;96.50;41.50;;;;;;;0.85;83.16;102410.38;106009;1270;25380;-57
2022/02/27 08:27:15;;;;;;;93.50;39.10;;;;;;;0.90;82.99;102412.61;105895;1270;22545;-57
2022/02/27 08:29:49;;;;;;;98.70;42.00;;;;;;;0.94;82.92;102411.99;105794;1270;22602;-56
2022/02/27 08:32:21;;;;;;;87.10;35.10;;;;;;;0.97;83.00;102416.20;105912;1270;24225;-56
2022/02/27 08:34:53;;;;;;;79.00;32.60;;;;;;;0.99;82.99;102417.83;105878;1270;25423;-57
2022/02/27 08:37:25;;;;;;;94.60;41.80;;;;;;;1.03;83.21;102411.92;105918;1270;24860;-57
2022/02/27 08:39:58;;;;;;;96.80;38.50;;;;;;;1.03;83.18;102415.39;105972;1270;24253;-59
2022/02/27 08:42:34;;;;;;;103.10;43.00;;;;;;;1.04;83.40;102413.44;106009;1270;23878;-58
2022/02/27 08:45:08;;;;;;;98.20;39.90;;;;;;;1.07;83.34;102411.63;105949;1270;26577;-58
2022/02/27 08:47:39;;;;;;;103.10;43.20;;;;;;;1.11;83.32;102411.39;106061;1270;22684;-58
2022/02/27 08:50:11;;;;;;;96.50;41.30;;;;;;;1.16;83.04;102412.44;106054;1268;24319;-57
2022/02/27 08:52:43;;;;;;;104.80;42.00;;;;;;;1.22;82.94;102412.55;106093;1270;22545;-57
2022/02/27 08:55:16;;;;;;;95.70;40.30;;;;;;;1.26;83.08;102414.45;106057;1270;22748;-58
2022/02/27 08:57:48;;;;;;;96.20;41.80;;;;;;;1.30;83.04;102414.45;105972;1270;22743;-57
2022/02/27 09:00:19;;;;;;;98.80;44.10;;;;;;;1.30;83.00;102413.27;105940;1270;25318;-57
2022/02/27 09:02:51;;;;;;;114.10;50.40;;;;;;;1.33;83.26;102415.38;105927;1270;23957;-57
2022/02/27 09:05:23;;;;;;;99.50;43.50;;;;;;;1.34;83.35;102412.41;105965;1270;25441;-58
2022/02/27 09:07:54;;;;;;;97.10;38.80;;;;;;;1.36;83.28;102414.41;106042;1271;26772;-58
2022/02/27 09:10:26;;;;;;;101.30;39.10;;;;;;;1.41;83.10;102417.42;106071;1267;22571;-59
2022/02/27 09:12:58;;;;;;;99.20;40.00;;;;;;;1.42;83.06;102416.64;105884;1270;22730;-58
2022/02/27 09:15:29;;;;;;;89.60;37.30;;;;;;;1.45;83.20;102415.46;105734;1267;22553;-58
2022/02/27 09:18:01;;;;;;;79.30;34.50;;;;;;;1.49;83.30;102414.58;106028;1270;22617;-56
2022/02/27 09:20:33;;;;;;;91.90;36.80;;;;;;;1.50;83.10;102410.04;105842;1270;22740;-58
2022/02/27 09:23:04;;;;;;;67.00;28.70;;;;;;;1.54;83.11;102405.16;106283;1268;24228;-58
2022/02/27 09:25:36;;;;;;;82.30;32.50;;;;;;;1.56;83.00;102408.51;105939;1270;22596;-58
2022/02/27 09:28:08;;;;;;;78.10;31.70;;;;;;;1.60;83.06;102406.36;106129;1268;24443;-57
2022/02/27 09:30:43;;;;;;;82.00;32.40;;;;;;;1.64;83.01;102402.75;106168;1270;22535;-57
2022/02/27 09:33:16;;;;;;;83.50;34.00;;;;;;;1.70;83.13;102404.66;106271;1267;22531;-58
2022/02/27 09:35:53;;;;;;;67.90;29.20;;;;;;;1.76;83.08;102406.19;106475;1270;25538;-56
2022/02/27 09:38:26;;;;;;;74.50;30.30;;;;;;;1.79;82.91;102403.72;106157;1270;23201;-57
2022/02/27 09:41:02;;;;;;;71.10;28.40;;;;;;;1.82;82.97;102402.02;106363;1270;23112;-58
2022/02/27 09:43:45;;;;;;;81.60;32.30;;;;;;;1.82;82.78;102398.02;105924;1270;22568;-58
2022/02/27 09:46:21;;;;;;;79.30;34.90;;;;;;;1.86;83.08;102396.45;106117;1270;22720;-60
2022/02/27 09:48:55;;;;;;;74.10;30.20;;;;;;;1.95;83.20;102393.05;106170;1270;22605;-58
2022/02/27 09:51:28;;;;;;;70.30;28.90;;;;;;;2.00;83.16;102393.20;106292;1271;24168;-61
2022/02/27 09:54:00;;;;;;;80.50;32.10;;;;;;;2.04;83.10;102390.84;106153;1270;24292;-58
2022/02/27 09:56:33;;;;;;;71.60;29.60;;;;;;;2.11;82.95;102391.50;106233;1268;24845;-58
2022/02/27 09:59:05;;;;;;;66.00;27.40;;;;;;;2.17;82.96;102392.47;105823;1270;22608;-57
2022/02/27 10:02:03;;;;;;;68.40;26.70;;;;;;;2.20;82.77;102393.94;105957;1268;22556;-58
2022/02/27 10:04:39;;;;;;;63.70;25.60;;;;;;;2.26;82.76;102391.73;106120;1270;24285;-57
2022/02/27 10:07:18;;;;;;;72.60;29.10;;;;;;;2.30;82.80;102394.02;106089;1270;25878;-58
2022/02/27 10:10:03;;;;;;;67.00;28.20;;;;;;;2.37;82.95;102396.64;107071;1267;22480;-59
2022/02/27 10:12:42;;;;;;;59.30;22.90;;;;;;;2.43;82.78;102391.21;106622;1270;24275;-59
2022/02/27 10:15:21;;;;;;;56.20;22.50;;;;;;;2.47;82.50;102389.70;106412;1270;24382;-58
2022/02/27 10:17:55;;;;;;;61.10;24.40;;;;;;;2.51;82.54;102389.52;106094;1270;26606;-58
2022/02/27 10:20:29;;;;;;;66.80;27.60;;;;;;;2.54;82.62;102388.22;106044;1267;23166;-61
2022/02/27 10:23:03;;;;;;;66.90;26.90;;;;;;;2.60;82.60;102388.06;106087;1270;22619;-58
2022/02/27 10:25:35;;;;;;;72.40;30.70;;;;;;;2.67;82.63;102385.01;106251;1268;22560;-60
2022/02/27 10:28:07;;;;;;;69.90;29.50;;;;;;;2.75;82.58;102383.39;106080;1270;27751;-59
2022/02/27 10:30:39;;;;;;;80.50;32.60;;;;;;;2.82;82.43;102376.61;106452;1270;23862;-58
2022/02/27 10:33:12;;;;;;;76.30;32.20;;;;;;;2.86;82.22;102376.52;105991;1270;22557;-58
2022/02/27 10:35:49;;;;;;;65.10;29.00;;;;;;;2.91;82.24;102377.52;105930;1268;24241;-59
2022/02/27 10:38:35;;;;;;;72.30;29.00;;;;;;;2.95;82.19;102374.57;105840;1267;22573;-59
2022/02/27 10:41:14;;;;;;;70.40;30.70;;;;;;;2.97;82.31;102379.73;105863;1268;22704;-59
2022/02/27 10:43:47;;;;;;;65.50;27.80;;;;;;;3.03;82.34;102376.26;105919;1270;22570;-56
2022/02/27 10:46:19;;;;;;;62.60;25.80;;;;;;;3.09;82.43;102378.06;105721;1270;25377;-57
2022/02/27 10:48:53;;;;;;;64.00;26.60;;;;;;;3.13;82.28;102374.86;105969;1270;22577;-56
2022/02/27 10:51:24;;;;;;;65.70;27.90;;;;;;;3.15;82.28;102373.31;105760;1270;24263;-60
2022/02/27 10:53:56;;;;;;;62.70;27.20;;;;;;;3.20;82.34;102369.19;105672;1270;24011;-59
2022/02/27 10:56:34;;;;;;;59.90;25.70;;;;;;;3.25;82.11;102369.11;105899;1270;22727;-59
2022/02/27 10:59:15;;;;;;;60.70;26.70;;;;;;;3.25;81.85;102367.36;105997;1270;22535;-57
2022/02/27 11:01:46;;;;;;;70.80;30.20;;;;;;;3.25;81.81;102360.02;105750;1270;22873;-59
2022/02/27 11:04:18;;;;;;;58.90;23.60;;;;;;;3.24;81.67;102358.76;105920;1270;22534;-59
2022/02/27 11:06:51;;;;;;;66.90;28.00;;;;;;;3.26;81.60;102361.22;105719;1270;24288;-59
2022/02/27 11:09:22;;;;;;;71.60;28.70;;;;;;;3.27;81.65;102359.83;105716;1270;22547;-59
2022/02/27 11:11:55;;;;;;;68.00;27.80;;;;;;;3.28;81.70;102360.38;106093;1267;25319;-61
2022/02/27 11:14:28;;;;;;;70.40;30.00;;;;;;;3.27;81.77;102360.45;106334;1270;25615;-60
2022/02/27 11:17:02;;;;;;;68.40;27.80;;;;;;;3.31;81.78;102355.83;105596;1270;453606;-60
2022/02/27 11:19:34;;;;;;;74.20;30.80;;;;;;;3.35;81.46;102354.29;105894;1270;25538;-61
2022/02/27 11:22:07;;;;;;;64.80;26.30;;;;;;;3.36;81.32;102355.80;105918;1270;24338;-61
2022/02/27 11:24:42;;;;;;;58.20;23.30;;;;;;;3.35;81.18;102355.26;105836;1269;25523;-60
2022/02/27 11:27:16;;;;;;;62.20;26.10;;;;;;;3.36;81.15;102354.55;105859;1270;22709;-60